createdAt,value
2018-06-13T00:01:29.989Z,17.09
2018-06-13T00:03:58.232Z,16.87
2018-06-13T00:06:26.455Z,16.72
2018-06-13T00:08:54.685Z,16.73
2018-06-13T00:11:22.960Z,16.55
2018-06-13T00:13:51.331Z,16.33
2018-06-13T00:16:19.560Z,16.56
2018-06-13T00:18:47.820Z,16.12
2018-06-13T00:21:16.266Z,16.29
2018-06-13T00:23:44.544Z,16.56
2018-06-13T00:26:12.963Z,16.56
2018-06-13T00:28:41.246Z,16.48
2018-06-13T00:31:09.561Z,16.17
2018-06-13T00:33:37.805Z,16.07
2018-06-13T00:36:06.223Z,15.99
2018-06-13T00:38:34.477Z,15.77
2018-06-13T00:41:02.732Z,16.02
2018-06-13T00:43:31.371Z,16.36
2018-06-13T00:45:59.668Z,16.01
2018-06-13T00:48:27.980Z,16.22
2018-06-13T00:50:56.380Z,16.09
2018-06-13T00:53:24.684Z,16.07
2018-06-13T00:56:32.749Z,16.09
2018-06-13T00:59:00.986Z,15.87
2018-06-13T01:01:29.213Z,16.00
2018-06-13T01:03:57.456Z,15.80
2018-06-13T01:06:25.771Z,15.92
2018-06-13T01:08:54.055Z,15.81
2018-06-13T01:11:22.344Z,15.87
2018-06-13T01:13:50.600Z,15.73
2018-06-13T01:16:18.871Z,16.06
2018-06-13T01:18:47.100Z,16.07
2018-06-13T01:21:15.369Z,16.00
2018-06-13T01:23:43.631Z,16.20
2018-06-13T01:26:11.833Z,16.08
2018-06-13T01:28:40.063Z,16.07
2018-06-13T01:31:08.326Z,15.98
2018-06-13T01:33:36.572Z,16.08
2018-06-13T01:36:04.962Z,16.00
2018-06-13T01:38:33.163Z,15.58
2018-06-13T01:41:01.426Z,15.56
2018-06-13T01:43:29.665Z,15.42
2018-06-13T01:45:57.925Z,15.37
2018-06-13T01:48:26.180Z,15.27
2018-06-13T01:50:56.859Z,15.67
2018-06-13T01:53:25.177Z,15.62
2018-06-13T01:55:53.502Z,15.51
2018-06-13T01:58:21.883Z,15.32
2018-06-13T02:00:50.305Z,15.35
2018-06-13T02:03:18.565Z,15.52
2018-06-13T02:05:46.780Z,15.36
2018-06-13T02:08:15.063Z,15.55
2018-06-13T02:10:43.311Z,15.55
2018-06-13T02:13:11.595Z,15.28
2018-06-13T02:15:39.847Z,15.47
2018-06-13T02:18:08.177Z,15.54
2018-06-13T02:20:36.418Z,15.45
2018-06-13T02:23:04.686Z,15.61
2018-06-13T02:25:32.991Z,15.64
2018-06-13T02:28:01.279Z,15.51
2018-06-13T02:30:29.749Z,15.18
2018-06-13T02:32:58.672Z,15.37
2018-06-13T02:35:27.038Z,15.71
2018-06-13T02:37:55.321Z,15.51
2018-06-13T02:40:23.583Z,15.49
2018-06-13T02:42:51.888Z,15.55
2018-06-13T02:45:20.190Z,15.46
2018-06-13T02:47:48.541Z,15.44
2018-06-13T02:50:16.819Z,15.20
2018-06-13T02:52:45.183Z,15.47
2018-06-13T02:55:13.452Z,15.50
2018-06-13T02:57:41.749Z,15.50
2018-06-13T03:00:10.044Z,15.41
2018-06-13T03:02:38.337Z,15.50
2018-06-13T03:05:06.597Z,15.40
2018-06-13T03:07:34.833Z,15.22
2018-06-13T03:10:03.104Z,15.21
2018-06-13T03:12:31.405Z,14.87
2018-06-13T03:14:59.707Z,15.07
2018-06-13T03:17:27.920Z,14.97
2018-06-13T03:19:56.181Z,15.00
2018-06-13T03:22:24.438Z,15.08
2018-06-13T03:24:57.202Z,15.10
2018-06-13T03:27:25.450Z,15.03
2018-06-13T03:29:53.875Z,15.24
2018-06-13T03:32:22.163Z,14.53
2018-06-13T03:34:50.454Z,14.70
2018-06-13T03:37:18.707Z,14.79
2018-06-13T03:39:46.916Z,14.88
2018-06-13T03:42:15.183Z,14.83
2018-06-13T03:44:43.404Z,14.85
2018-06-13T03:47:11.647Z,14.92
2018-06-13T03:49:39.880Z,15.07
2018-06-13T03:52:08.115Z,14.83
2018-06-13T03:54:36.359Z,14.88
2018-06-13T03:57:04.589Z,14.68
2018-06-13T03:59:32.819Z,14.77
2018-06-13T04:02:01.080Z,14.76
2018-06-13T04:04:29.361Z,14.76
2018-06-13T04:06:57.626Z,14.64
2018-06-13T04:09:25.836Z,14.73
2018-06-13T04:11:54.073Z,14.58
2018-06-13T04:14:22.270Z,14.70
2018-06-13T04:16:50.611Z,14.79
2018-06-13T04:19:18.844Z,14.53
2018-06-13T04:21:47.131Z,14.52
2018-06-13T04:24:15.346Z,14.72
2018-06-13T04:26:44.070Z,14.83
2018-06-13T04:29:12.317Z,14.58
2018-06-13T04:31:40.547Z,14.86
2018-06-13T04:34:08.805Z,14.68
2018-06-13T04:36:37.011Z,14.85
2018-06-13T04:39:08.779Z,14.58
2018-06-13T04:41:37.359Z,14.75
2018-06-13T04:44:05.596Z,14.77
2018-06-13T04:46:33.820Z,14.79
2018-06-13T04:49:02.040Z,14.70
2018-06-13T04:51:30.280Z,14.94
2018-06-13T04:53:58.500Z,14.75
2018-06-13T04:56:26.740Z,14.83
2018-06-13T04:58:54.995Z,14.61
2018-06-13T05:01:23.437Z,14.87
2018-06-13T05:03:51.721Z,14.59
2018-06-13T05:06:19.955Z,14.81
2018-06-13T05:08:48.254Z,14.81
2018-06-13T05:11:16.485Z,14.66
2018-06-13T05:13:44.828Z,14.71
2018-06-13T05:16:13.109Z,14.92
2018-06-13T05:18:41.449Z,14.74
2018-06-13T05:21:09.678Z,14.82
2018-06-13T05:23:38.005Z,14.78
2018-06-13T05:26:06.427Z,14.72
2018-06-13T05:28:35.635Z,14.74
2018-06-13T05:31:03.868Z,14.91
2018-06-13T05:33:32.121Z,14.73
2018-06-13T05:36:00.405Z,14.98
2018-06-13T05:38:28.729Z,14.81
2018-06-13T05:40:56.970Z,14.74
2018-06-13T05:43:25.196Z,14.88
2018-06-13T05:45:53.437Z,14.87
2018-06-13T05:48:22.351Z,14.82
2018-06-13T05:50:50.605Z,14.86
2018-06-13T05:53:18.877Z,15.02
2018-06-13T05:55:47.148Z,14.90
2018-06-13T05:58:15.429Z,15.02
2018-06-13T06:00:43.707Z,15.03
2018-06-13T06:03:12.136Z,15.17
2018-06-13T06:05:40.410Z,14.96
2018-06-13T06:08:08.633Z,15.14
2018-06-13T06:10:36.988Z,15.42
2018-06-13T06:13:05.484Z,15.27
2018-06-13T06:15:33.761Z,15.18
2018-06-13T06:18:01.988Z,15.34
2018-06-13T06:20:30.278Z,15.45
2018-06-13T06:22:58.681Z,15.29
2018-06-13T06:25:26.917Z,15.45
2018-06-13T06:27:55.272Z,15.22
2018-06-13T06:30:23.586Z,15.29
2018-06-13T06:32:51.920Z,15.42
2018-06-13T06:35:20.272Z,15.46
2018-06-13T06:37:48.526Z,15.57
2018-06-13T06:40:16.837Z,15.45
2018-06-13T06:42:45.068Z,15.60
2018-06-13T06:45:13.380Z,15.49
2018-06-13T06:47:41.627Z,15.62
2018-06-13T06:50:09.897Z,15.78
2018-06-13T06:52:38.174Z,15.59
2018-06-13T06:55:06.403Z,15.66
2018-06-13T06:57:34.660Z,15.72
2018-06-13T07:00:02.912Z,15.87
2018-06-13T07:02:31.182Z,15.84
2018-06-13T07:04:59.468Z,15.80
2018-06-13T07:07:27.863Z,15.74
2018-06-13T07:09:56.066Z,15.83
2018-06-13T07:12:24.336Z,15.83
2018-06-13T07:14:52.556Z,15.93
2018-06-13T07:17:20.763Z,15.79
2018-06-13T07:19:49.079Z,15.91
2018-06-13T07:22:17.315Z,15.80
2018-06-13T07:24:45.616Z,15.83
2018-06-13T07:27:13.847Z,15.82
2018-06-13T07:29:42.133Z,15.90
2018-06-13T07:32:10.382Z,15.88
2018-06-13T07:34:38.643Z,16.19
2018-06-13T07:37:06.904Z,16.10
2018-06-13T07:39:35.176Z,16.00
2018-06-13T07:42:03.484Z,16.23
2018-06-13T07:44:31.831Z,16.45
2018-06-13T07:47:00.182Z,16.40
2018-06-13T07:49:28.578Z,16.33
2018-06-13T07:51:56.847Z,16.45
2018-06-13T07:54:25.086Z,16.23
2018-06-13T07:56:53.338Z,16.29
2018-06-13T07:59:21.563Z,15.85
2018-06-13T08:01:49.842Z,16.13
2018-06-13T08:04:18.066Z,16.24
2018-06-13T08:06:46.350Z,16.00
2018-06-13T08:09:14.560Z,16.22
2018-06-13T08:11:42.841Z,16.30
2018-06-13T08:14:11.044Z,16.40
2018-06-13T08:16:39.262Z,16.28
2018-06-13T08:19:07.537Z,16.23
2018-06-13T08:21:35.737Z,15.93
2018-06-13T08:24:04.123Z,16.30
2018-06-13T08:26:32.305Z,16.58
2018-06-13T08:29:00.593Z,16.80
2018-06-13T08:31:28.815Z,16.94
2018-06-13T08:33:57.094Z,17.01
2018-06-13T08:36:25.311Z,16.94
2018-06-13T08:38:53.505Z,16.81
2018-06-13T08:41:21.782Z,16.71
2018-06-13T08:43:50.013Z,16.84
2018-06-13T08:46:18.307Z,16.87
2018-06-13T08:48:46.547Z,16.90
2018-06-13T08:51:14.823Z,16.97
2018-06-13T08:53:43.096Z,16.89
2018-06-13T08:56:11.360Z,17.07
2018-06-13T08:58:39.618Z,16.96
2018-06-13T09:01:07.839Z,17.05
2018-06-13T09:03:36.074Z,17.10
2018-06-13T09:06:04.290Z,17.09
2018-06-13T09:08:32.579Z,17.10
2018-06-13T09:11:00.805Z,17.17
2018-06-13T09:13:29.047Z,17.22
2018-06-13T09:15:57.277Z,17.22
2018-06-13T09:18:25.567Z,17.19
2018-06-13T09:20:53.791Z,17.25
2018-06-13T09:23:22.065Z,16.89
2018-06-13T09:25:50.282Z,17.30
2018-06-13T09:28:18.554Z,17.22
2018-06-13T09:30:46.772Z,17.33
2018-06-13T09:33:14.983Z,17.29
2018-06-13T09:35:43.226Z,17.34
2018-06-13T09:38:12.113Z,17.46
2018-06-13T09:40:40.398Z,17.51
2018-06-13T09:43:08.693Z,17.68
2018-06-13T09:45:36.925Z,17.79
2018-06-13T09:48:05.237Z,17.51
2018-06-13T09:50:33.574Z,17.75
2018-06-13T09:53:01.918Z,17.86
2018-06-13T09:55:30.144Z,18.13
2018-06-13T09:57:58.477Z,18.05
2018-06-13T10:00:32.080Z,18.11
2018-06-13T10:03:00.357Z,18.09
2018-06-13T10:05:28.784Z,18.38
2018-06-13T10:07:57.169Z,18.17
2018-06-13T10:10:25.427Z,18.26
2018-06-13T10:12:53.659Z,18.09
2018-06-13T10:15:21.941Z,17.93
2018-06-13T10:17:50.256Z,17.88
2018-06-13T10:20:18.504Z,17.88
2018-06-13T10:22:46.767Z,18.03
2018-06-13T10:25:15.024Z,17.95
2018-06-13T10:27:43.396Z,18.02
2018-06-13T10:30:11.633Z,18.17
2018-06-13T10:32:39.859Z,18.14
2018-06-13T10:35:08.147Z,18.26
2018-06-13T10:37:36.379Z,18.34
2018-06-13T10:40:04.636Z,18.69
2018-06-13T10:42:32.872Z,18.46
2018-06-13T10:45:01.097Z,18.48
2018-06-13T10:47:29.321Z,18.40
2018-06-13T10:49:57.609Z,18.45
2018-06-13T10:52:25.837Z,18.35
2018-06-13T10:54:54.067Z,18.38
2018-06-13T10:57:22.297Z,18.52
2018-06-13T10:59:50.568Z,18.56
2018-06-13T11:02:18.816Z,18.51
2018-06-13T11:04:47.108Z,18.44
2018-06-13T11:07:15.264Z,18.67
2018-06-13T11:09:43.499Z,18.83
2018-06-13T11:12:11.764Z,18.97
2018-06-13T11:14:40.016Z,18.89
2018-06-13T11:17:09.186Z,18.51
2018-06-13T11:19:37.439Z,18.49
2018-06-13T11:22:05.716Z,18.64
2018-06-13T11:24:33.951Z,18.46
2018-06-13T11:27:02.187Z,18.34
2018-06-13T11:29:30.400Z,18.38
2018-06-13T11:31:58.656Z,18.55
2018-06-13T11:34:26.897Z,18.63
2018-06-13T11:36:55.111Z,18.62
2018-06-13T11:39:23.397Z,18.62
2018-06-13T11:41:51.632Z,18.56
2018-06-13T11:44:19.869Z,18.49
2018-06-13T11:46:48.082Z,18.64
2018-06-13T11:49:16.290Z,18.58
2018-06-13T11:51:44.609Z,18.43
2018-06-13T11:54:12.852Z,18.29
2018-06-13T11:56:41.100Z,18.59
2018-06-13T11:59:09.313Z,18.36
2018-06-13T12:01:37.679Z,18.31
2018-06-13T12:04:05.940Z,18.41
2018-06-13T12:06:34.224Z,18.65
2018-06-13T12:09:02.493Z,18.86
2018-06-13T12:11:31.170Z,18.93
2018-06-13T12:13:59.421Z,18.95
2018-06-13T12:16:27.643Z,18.91
2018-06-13T12:18:56.171Z,18.81
2018-06-13T12:21:24.438Z,18.66
2018-06-13T12:23:52.749Z,18.78
2018-06-13T12:26:20.962Z,18.90
2018-06-13T12:28:49.245Z,19.01
2018-06-13T12:31:17.456Z,19.00
2018-06-13T12:33:45.730Z,18.76
2018-06-13T12:36:13.944Z,18.74
2018-06-13T12:38:42.410Z,18.84
2018-06-13T12:41:10.659Z,18.47
2018-06-13T12:43:38.899Z,18.33
2018-06-13T12:46:07.160Z,18.89
2018-06-13T12:48:35.500Z,18.73
2018-06-13T12:51:03.716Z,18.95
2018-06-13T12:53:32.203Z,19.18
2018-06-13T12:56:00.413Z,19.23
2018-06-13T12:58:28.648Z,19.12
2018-06-13T13:00:56.976Z,18.88
2018-06-13T13:03:25.406Z,18.87
2018-06-13T13:05:53.756Z,18.81
2018-06-13T13:08:21.991Z,18.73
2018-06-13T13:10:50.340Z,18.70
2018-06-13T13:13:18.658Z,18.51
2018-06-13T13:15:47.050Z,18.23
2018-06-13T13:18:15.289Z,18.20
2018-06-13T13:20:43.545Z,18.28
2018-06-13T13:23:11.768Z,18.13
2018-06-13T13:25:40.035Z,18.05
2018-06-13T13:28:08.272Z,17.84
2018-06-13T13:30:36.615Z,18.13
2018-06-13T13:33:04.935Z,18.33
2018-06-13T13:35:33.188Z,18.14
2018-06-13T13:38:01.457Z,17.72
2018-06-13T13:40:29.807Z,17.94
2018-06-13T13:42:58.094Z,18.11
2018-06-13T13:45:26.363Z,18.09
2018-06-13T13:47:54.551Z,18.26
2018-06-13T13:50:22.798Z,18.31
2018-06-13T13:52:51.064Z,17.99
2018-06-13T13:55:19.277Z,18.05
2018-06-13T13:57:47.986Z,18.17
2018-06-13T14:00:16.288Z,18.46
2018-06-13T14:02:44.747Z,18.26
2018-06-13T14:05:13.343Z,18.64
2018-06-13T14:07:41.580Z,18.33
2018-06-13T14:10:09.812Z,18.44
2018-06-13T14:12:38.064Z,18.38
2018-06-13T14:15:06.332Z,18.44
2018-06-13T14:17:34.828Z,18.63
2018-06-13T14:20:03.096Z,18.81
2018-06-13T14:22:31.332Z,18.67
2018-06-13T14:24:59.574Z,18.89
2018-06-13T14:27:27.814Z,18.98
2018-06-13T14:29:56.051Z,18.92
2018-06-13T14:32:24.364Z,19.20
2018-06-13T14:34:52.722Z,19.10
2018-06-13T14:37:21.134Z,19.13
2018-06-13T14:39:49.515Z,18.95
2018-06-13T14:42:17.864Z,19.25
2018-06-13T14:44:46.146Z,19.07
2018-06-13T14:47:14.412Z,19.18
2018-06-13T14:49:42.704Z,19.12
2018-06-13T14:52:10.969Z,18.88
2018-06-13T14:54:39.190Z,18.74
2018-06-13T14:57:07.518Z,19.03
2018-06-13T14:59:35.741Z,18.75
2018-06-13T15:02:03.985Z,18.81
2018-06-13T15:04:34.383Z,18.62
2018-06-13T15:07:03.903Z,18.49
2018-06-13T15:09:32.166Z,18.80
2018-06-13T15:12:00.428Z,18.94
2018-06-13T15:14:28.643Z,18.93
2018-06-13T15:16:57.120Z,18.75
2018-06-13T15:19:25.529Z,18.92
2018-06-13T15:21:53.941Z,18.96
2018-06-13T15:24:22.419Z,18.98
2018-06-13T15:26:50.729Z,19.15
2018-06-13T15:29:18.947Z,19.13
2018-06-13T15:31:47.230Z,18.99
2018-06-13T15:34:15.522Z,18.97
2018-06-13T15:36:43.755Z,18.82
2018-06-13T15:39:13.865Z,19.38
2018-06-13T15:41:42.651Z,19.14
2018-06-13T15:44:10.957Z,19.23
2018-06-13T15:46:39.190Z,19.09
2018-06-13T15:49:07.462Z,18.82
2018-06-13T15:51:35.735Z,18.89
2018-06-13T15:54:04.025Z,18.97
2018-06-13T15:56:32.441Z,19.26
2018-06-13T15:59:01.459Z,19.38
2018-06-13T16:01:29.691Z,19.57
2018-06-13T16:03:57.903Z,19.82
2018-06-13T16:06:26.202Z,19.70
2018-06-13T16:08:54.445Z,19.23
2018-06-13T16:11:22.732Z,19.30
2018-06-13T16:13:50.969Z,19.13
2018-06-13T16:16:19.361Z,19.11
2018-06-13T16:18:47.818Z,18.81
2018-06-13T16:21:16.231Z,18.87
2018-06-13T16:23:44.540Z,18.82
2018-06-13T16:26:12.739Z,18.82
2018-06-13T16:28:40.971Z,18.69
2018-06-13T16:31:09.221Z,18.88
2018-06-13T16:33:37.485Z,18.90
2018-06-13T16:36:05.783Z,19.04
2018-06-13T16:38:34.006Z,19.07
2018-06-13T16:41:02.365Z,18.49
2018-06-13T16:43:30.634Z,18.86
2018-06-13T16:45:58.827Z,18.69
2018-06-13T16:48:27.139Z,18.79
2018-06-13T16:51:06.716Z,18.62
2018-06-13T16:53:59.314Z,18.46
2018-06-13T16:56:27.549Z,18.75
2018-06-13T16:58:55.844Z,18.68
2018-06-13T17:01:24.230Z,18.78
2018-06-13T17:03:53.369Z,18.82
2018-06-13T17:06:22.180Z,18.94
2018-06-13T17:08:50.428Z,19.09
2018-06-13T17:11:18.863Z,19.09
2018-06-13T17:13:47.359Z,18.94
2018-06-13T17:16:15.726Z,18.82
2018-06-13T17:18:43.937Z,18.87
2018-06-13T17:21:12.217Z,18.76
2018-06-13T17:23:40.424Z,18.79
2018-06-13T17:26:08.683Z,18.82
2018-06-13T17:28:36.958Z,18.77
2018-06-13T17:31:05.161Z,18.82
2018-06-13T17:33:34.086Z,18.95
2018-06-13T17:36:02.388Z,18.67
2018-06-13T17:38:30.751Z,18.56
2018-06-13T17:40:59.095Z,18.66
2018-06-13T17:43:27.301Z,18.82
2018-06-13T17:45:55.604Z,18.64
2018-06-13T17:48:23.803Z,18.50
2018-06-13T17:50:52.131Z,18.82
2018-06-13T17:53:20.457Z,18.71
2018-06-13T17:55:48.729Z,18.72
2018-06-13T17:58:16.950Z,18.52
2018-06-13T18:00:45.249Z,18.55
2018-06-13T18:03:13.571Z,18.52
2018-06-13T18:05:41.826Z,18.08
2018-06-13T18:08:10.209Z,18.26
2018-06-13T18:10:38.452Z,18.36
2018-06-13T18:13:06.665Z,18.38
2018-06-13T18:15:34.940Z,18.29
2018-06-13T18:18:03.189Z,18.16
2018-06-13T18:20:31.469Z,18.36
2018-06-13T18:22:59.893Z,18.18
2018-06-13T18:25:28.344Z,18.12
2018-06-13T18:27:56.706Z,17.98
2018-06-13T18:30:25.089Z,17.94
2018-06-13T18:32:53.370Z,18.12
2018-06-13T18:35:21.620Z,18.05
2018-06-13T18:37:50.222Z,18.06
2018-06-13T18:40:18.451Z,18.06
2018-06-13T18:42:46.734Z,17.95
2018-06-13T18:45:15.018Z,17.79
2018-06-13T18:47:43.369Z,17.90
2018-06-13T18:50:11.663Z,18.00
2018-06-13T18:52:40.029Z,17.83
2018-06-13T18:55:08.365Z,17.85
2018-06-13T18:57:36.746Z,17.95
2018-06-13T19:00:05.405Z,18.09
2018-06-13T19:02:33.699Z,18.16
2018-06-13T19:05:02.207Z,17.98
2018-06-13T19:07:30.483Z,18.07
2018-06-13T19:09:58.727Z,18.18
2018-06-13T19:12:27.333Z,18.05
2018-06-13T19:14:55.572Z,18.08
2018-06-13T19:17:23.807Z,18.05
2018-06-13T19:19:52.223Z,18.10
2018-06-13T19:22:20.517Z,18.16
2018-06-13T19:24:48.792Z,18.03
2018-06-13T19:27:17.162Z,17.90
2018-06-13T19:29:45.557Z,17.79
2018-06-13T19:32:13.866Z,17.81
2018-06-13T19:34:42.197Z,17.94
2018-06-13T19:37:10.521Z,17.86
2018-06-13T19:39:38.877Z,17.77
2018-06-13T19:42:07.125Z,17.96
2018-06-13T19:44:35.460Z,17.92
2018-06-13T19:47:08.982Z,17.97
2018-06-13T19:49:37.336Z,17.96
2018-06-13T19:52:05.646Z,17.74
2018-06-13T19:54:39.163Z,17.64
2018-06-13T19:57:07.434Z,17.57
2018-06-13T19:59:35.740Z,17.45
2018-06-13T20:02:04.177Z,17.67
2018-06-13T20:04:37.798Z,17.48
2018-06-13T20:07:06.085Z,17.43
2018-06-13T20:09:34.405Z,17.62
2018-06-13T20:12:07.944Z,17.73
2018-06-13T20:14:41.560Z,17.48
2018-06-13T20:17:15.163Z,17.52
2018-06-13T20:19:44.105Z,17.43
2018-06-13T20:22:12.414Z,17.54
2018-06-13T20:24:40.696Z,17.58
2018-06-13T20:28:12.891Z,17.28
2018-06-13T20:30:46.482Z,17.30
2018-06-13T20:33:14.769Z,17.24
2018-06-13T20:35:43.048Z,17.28
2018-06-13T20:38:11.297Z,17.18
2018-06-13T20:40:39.582Z,17.15
2018-06-13T20:43:07.893Z,17.39
2018-06-13T20:45:36.199Z,17.47
2018-06-13T20:48:04.634Z,17.47
2018-06-13T20:50:32.896Z,17.23
2018-06-13T20:53:01.221Z,17.36
2018-06-13T20:55:29.524Z,17.29
2018-06-13T20:57:57.757Z,17.16
2018-06-13T21:00:26.048Z,17.47
2018-06-13T21:02:54.379Z,17.35
2018-06-13T21:05:22.696Z,17.35
2018-06-13T21:07:51.031Z,17.34
2018-06-13T21:10:19.495Z,17.48
2018-06-13T21:12:47.725Z,17.17
2018-06-13T21:15:16.087Z,17.26
2018-06-13T21:17:44.330Z,17.36
2018-06-13T21:20:12.577Z,17.47
2018-06-13T21:22:41.092Z,17.38
2018-06-13T21:25:09.360Z,17.44
2018-06-13T21:27:37.599Z,17.28
2018-06-13T21:30:06.038Z,17.26
2018-06-13T21:32:34.335Z,17.37
2018-06-13T21:35:02.662Z,17.44
2018-06-13T21:37:31.043Z,17.45
2018-06-13T21:39:59.472Z,17.28
2018-06-13T21:42:27.734Z,17.20
2018-06-13T21:44:56.026Z,17.24
2018-06-13T21:47:24.296Z,17.24
2018-06-13T21:49:52.551Z,17.22
2018-06-13T21:52:20.812Z,17.18
2018-06-13T21:54:49.199Z,17.09
2018-06-13T21:57:17.481Z,16.97
2018-06-13T21:59:45.828Z,16.87
2018-06-13T22:02:14.215Z,16.94
2018-06-13T22:04:42.482Z,16.74
2018-06-13T22:07:10.800Z,16.70
2018-06-13T22:09:39.047Z,16.82
2018-06-13T22:12:07.353Z,16.70
2018-06-13T22:14:35.821Z,16.63
2018-06-13T22:17:04.165Z,16.57
2018-06-13T22:19:32.455Z,16.54
2018-06-13T22:22:00.762Z,16.52
2018-06-13T22:24:29.254Z,16.44
2018-06-13T22:26:57.627Z,16.55
2018-06-13T22:29:26.998Z,16.41
2018-06-13T22:31:56.332Z,16.24
2018-06-13T22:34:25.488Z,16.29
2018-06-13T22:36:54.974Z,16.17
2018-06-13T22:39:24.245Z,16.35
2018-06-13T22:41:53.762Z,16.13
2018-06-13T22:44:23.025Z,16.37
2018-06-13T22:46:52.813Z,16.37
2018-06-13T22:49:21.993Z,16.12
2018-06-13T22:51:52.432Z,16.29
2018-06-13T22:54:21.061Z,16.32
2018-06-13T22:56:49.349Z,16.17
2018-06-13T22:59:17.831Z,16.32
2018-06-13T23:01:46.178Z,16.45
2018-06-13T23:04:14.483Z,16.45
2018-06-13T23:06:42.729Z,16.44
2018-06-13T23:09:11.051Z,16.26
2018-06-13T23:11:39.539Z,16.31
2018-06-13T23:14:07.975Z,16.29
2018-06-13T23:16:36.320Z,16.29
2018-06-13T23:19:04.808Z,16.09
2018-06-13T23:21:33.085Z,16.24
2018-06-13T23:24:01.365Z,16.18
2018-06-13T23:26:29.617Z,16.16
2018-06-13T23:28:57.910Z,16.28
2018-06-13T23:31:26.149Z,16.13
2018-06-13T23:33:54.420Z,15.97
2018-06-13T23:36:22.711Z,16.08
2018-06-13T23:38:50.928Z,16.14
2018-06-13T23:41:19.205Z,15.77
2018-06-13T23:43:47.449Z,15.92
2018-06-13T23:46:15.729Z,16.06
2018-06-13T23:48:43.966Z,15.94
2018-06-13T23:51:12.240Z,16.04
2018-06-13T23:53:40.527Z,16.01
2018-06-13T23:56:08.857Z,15.74
2018-06-13T23:58:37.217Z,15.83
